sensor_id;sensor_type;location;lat;lon;timestamp;P1;durP1;ratioP1;P2;durP2;ratioP2
8423;SDS011;4249;49.072;9.770;2022-09-17T00:00:58;3.03;;;2.73;;
8423;SDS011;4249;49.072;9.770;2022-09-17T00:03:47;2.70;;;2.20;;
8423;SDS011;4249;49.072;9.770;2022-09-17T00:06:38;4.13;;;2.67;;
8423;SDS011;4249;49.072;9.770;2022-09-17T00:09:25;2.67;;;2.47;;
8423;SDS011;4249;49.072;9.770;2022-09-17T00:12:12;3.07;;;2.53;;
8423;SDS011;4249;49.072;9.770;2022-09-17T00:14:59;2.87;;;2.60;;
8423;SDS011;4249;49.072;9.770;2022-09-17T00:17:46;4.23;;;2.30;;
8423;SDS011;4249;49.072;9.770;2022-09-17T00:20:39;2.97;;;2.67;;
8423;SDS011;4249;49.072;9.770;2022-09-17T00:23:27;3.33;;;2.90;;
8423;SDS011;4249;49.072;9.770;2022-09-17T00:26:15;2.83;;;2.63;;
8423;SDS011;4249;49.072;9.770;2022-09-17T00:29:02;2.20;;;2.00;;
8423;SDS011;4249;49.072;9.770;2022-09-17T00:31:50;2.77;;;2.53;;
8423;SDS011;4249;49.072;9.770;2022-09-17T00:34:37;2.83;;;2.40;;
8423;SDS011;4249;49.072;9.770;2022-09-17T00:37:24;2.13;;;2.03;;
8423;SDS011;4249;49.072;9.770;2022-09-17T00:40:13;3.20;;;2.60;;
8423;SDS011;4249;49.072;9.770;2022-09-17T00:43:00;2.60;;;2.40;;
8423;SDS011;4249;49.072;9.770;2022-09-17T00:45:48;2.40;;;2.20;;
8423;SDS011;4249;49.072;9.770;2022-09-17T00:48:37;2.67;;;2.30;;
8423;SDS011;4249;49.072;9.770;2022-09-17T00:51:26;2.70;;;2.50;;
8423;SDS011;4249;49.072;9.770;2022-09-17T00:54:19;4.07;;;2.20;;
8423;SDS011;4249;49.072;9.770;2022-09-17T00:57:08;3.10;;;2.43;;
8423;SDS011;4249;49.072;9.770;2022-09-17T00:59:55;2.57;;;2.37;;
8423;SDS011;4249;49.072;9.770;2022-09-17T01:02:42;1.90;;;1.80;;
8423;SDS011;4249;49.072;9.770;2022-09-17T01:05:30;2.77;;;1.97;;
8423;SDS011;4249;49.072;9.770;2022-09-17T01:08:24;5.67;;;2.10;;
8423;SDS011;4249;49.072;9.770;2022-09-17T01:11:22;2.53;;;1.90;;
8423;SDS011;4249;49.072;9.770;2022-09-17T01:14:25;2.57;;;2.30;;
8423;SDS011;4249;49.072;9.770;2022-09-17T01:17:25;2.23;;;1.93;;
8423;SDS011;4249;49.072;9.770;2022-09-17T01:20:28;3.10;;;1.93;;
8423;SDS011;4249;49.072;9.770;2022-09-17T01:23:47;3.63;;;1.80;;
8423;SDS011;4249;49.072;9.770;2022-09-17T01:27:03;2.53;;;1.70;;
8423;SDS011;4249;49.072;9.770;2022-09-17T01:33:18;2.60;;;1.80;;
8423;SDS011;4249;49.072;9.770;2022-09-17T01:36:14;2.70;;;2.20;;
8423;SDS011;4249;49.072;9.770;2022-09-17T01:39:15;4.20;;;2.00;;
8423;SDS011;4249;49.072;9.770;2022-09-17T01:42:14;2.33;;;2.13;;
8423;SDS011;4249;49.072;9.770;2022-09-17T01:45:07;2.83;;;2.00;;
8423;SDS011;4249;49.072;9.770;2022-09-17T01:48:01;2.93;;;1.70;;
8423;SDS011;4249;49.072;9.770;2022-09-17T01:50:54;2.33;;;2.13;;
8423;SDS011;4249;49.072;9.770;2022-09-17T01:53:45;2.97;;;1.97;;
8423;SDS011;4249;49.072;9.770;2022-09-17T01:56:37;4.10;;;1.90;;
8423;SDS011;4249;49.072;9.770;2022-09-17T01:59:30;3.17;;;2.37;;
8423;SDS011;4249;49.072;9.770;2022-09-17T02:02:22;2.40;;;1.80;;
8423;SDS011;4249;49.072;9.770;2022-09-17T02:05:15;3.60;;;2.30;;
8423;SDS011;4249;49.072;9.770;2022-09-17T02:08:06;5.23;;;2.47;;
8423;SDS011;4249;49.072;9.770;2022-09-17T02:10:58;2.47;;;2.20;;
8423;SDS011;4249;49.072;9.770;2022-09-17T02:13:52;2.73;;;1.83;;
8423;SDS011;4249;49.072;9.770;2022-09-17T02:16:44;2.30;;;2.10;;
8423;SDS011;4249;49.072;9.770;2022-09-17T02:19:36;2.33;;;1.80;;
8423;SDS011;4249;49.072;9.770;2022-09-17T02:22:27;2.07;;;1.87;;
8423;SDS011;4249;49.072;9.770;2022-09-17T02:25:21;3.33;;;2.00;;
8423;SDS011;4249;49.072;9.770;2022-09-17T02:28:13;2.80;;;2.10;;
8423;SDS011;4249;49.072;9.770;2022-09-17T02:31:04;4.57;;;2.30;;
8423;SDS011;4249;49.072;9.770;2022-09-17T02:33:52;3.23;;;2.27;;
8423;SDS011;4249;49.072;9.770;2022-09-17T02:36:44;3.50;;;2.57;;
8423;SDS011;4249;49.072;9.770;2022-09-17T02:39:33;2.97;;;2.27;;
8423;SDS011;4249;49.072;9.770;2022-09-17T02:42:21;4.60;;;2.10;;
8423;SDS011;4249;49.072;9.770;2022-09-17T02:45:15;3.20;;;2.30;;
8423;SDS011;4249;49.072;9.770;2022-09-17T02:48:23;3.17;;;2.10;;
8423;SDS011;4249;49.072;9.770;2022-09-17T02:51:23;2.30;;;1.90;;
8423;SDS011;4249;49.072;9.770;2022-09-17T02:54:21;2.43;;;2.20;;
8423;SDS011;4249;49.072;9.770;2022-09-17T02:57:14;2.80;;;2.17;;
8423;SDS011;4249;49.072;9.770;2022-09-17T03:00:11;3.40;;;2.10;;
8423;SDS011;4249;49.072;9.770;2022-09-17T03:03:02;7.13;;;2.87;;
8423;SDS011;4249;49.072;9.770;2022-09-17T03:05:54;2.20;;;2.00;;
8423;SDS011;4249;49.072;9.770;2022-09-17T03:08:42;2.00;;;1.80;;
8423;SDS011;4249;49.072;9.770;2022-09-17T03:11:31;4.03;;;2.27;;
8423;SDS011;4249;49.072;9.770;2022-09-17T03:14:20;2.50;;;2.30;;
8423;SDS011;4249;49.072;9.770;2022-09-17T03:17:08;4.37;;;2.60;;
8423;SDS011;4249;49.072;9.770;2022-09-17T03:19:56;5.37;;;2.67;;
8423;SDS011;4249;49.072;9.770;2022-09-17T03:22:43;2.57;;;2.33;;
8423;SDS011;4249;49.072;9.770;2022-09-17T03:25:31;5.23;;;2.63;;
8423;SDS011;4249;49.072;9.770;2022-09-17T03:28:18;4.30;;;2.80;;
8423;SDS011;4249;49.072;9.770;2022-09-17T03:31:07;6.77;;;3.00;;
8423;SDS011;4249;49.072;9.770;2022-09-17T03:33:54;4.07;;;2.80;;
8423;SDS011;4249;49.072;9.770;2022-09-17T03:36:41;4.20;;;2.70;;
8423;SDS011;4249;49.072;9.770;2022-09-17T03:39:28;5.57;;;2.60;;
8423;SDS011;4249;49.072;9.770;2022-09-17T03:42:16;3.20;;;2.53;;
8423;SDS011;4249;49.072;9.770;2022-09-17T03:45:03;5.23;;;2.77;;
8423;SDS011;4249;49.072;9.770;2022-09-17T03:47:52;3.67;;;2.60;;
8423;SDS011;4249;49.072;9.770;2022-09-17T03:50:40;6.63;;;2.63;;
8423;SDS011;4249;49.072;9.770;2022-09-17T03:53:28;5.50;;;2.67;;
8423;SDS011;4249;49.072;9.770;2022-09-17T03:56:16;6.03;;;2.90;;
8423;SDS011;4249;49.072;9.770;2022-09-17T03:59:03;5.93;;;2.70;;
8423;SDS011;4249;49.072;9.770;2022-09-17T04:01:50;4.30;;;3.10;;
8423;SDS011;4249;49.072;9.770;2022-09-17T04:04:39;5.17;;;3.67;;
8423;SDS011;4249;49.072;9.770;2022-09-17T04:07:26;6.10;;;3.83;;
8423;SDS011;4249;49.072;9.770;2022-09-17T04:10:13;7.43;;;3.83;;
8423;SDS011;4249;49.072;9.770;2022-09-17T04:13:00;7.33;;;4.07;;
8423;SDS011;4249;49.072;9.770;2022-09-17T04:15:48;6.27;;;3.70;;
8423;SDS011;4249;49.072;9.770;2022-09-17T04:18:36;4.53;;;3.50;;
8423;SDS011;4249;49.072;9.770;2022-09-17T04:21:25;8.53;;;4.03;;
8423;SDS011;4249;49.072;9.770;2022-09-17T04:24:12;7.70;;;3.93;;
8423;SDS011;4249;49.072;9.770;2022-09-17T04:26:59;8.20;;;3.70;;
8423;SDS011;4249;49.072;9.770;2022-09-17T04:29:46;7.83;;;3.80;;
8423;SDS011;4249;49.072;9.770;2022-09-17T04:32:33;10.60;;;3.90;;
8423;SDS011;4249;49.072;9.770;2022-09-17T04:35:20;5.77;;;3.40;;
8423;SDS011;4249;49.072;9.770;2022-09-17T04:38:09;6.17;;;3.10;;
8423;SDS011;4249;49.072;9.770;2022-09-17T04:40:58;4.97;;;3.30;;
8423;SDS011;4249;49.072;9.770;2022-09-17T04:43:45;5.63;;;3.00;;
8423;SDS011;4249;49.072;9.770;2022-09-17T04:46:32;6.80;;;3.20;;
8423;SDS011;4249;49.072;9.770;2022-09-17T04:49:19;7.70;;;3.33;;
8423;SDS011;4249;49.072;9.770;2022-09-17T04:52:07;5.37;;;3.03;;
8423;SDS011;4249;49.072;9.770;2022-09-17T04:54:55;7.20;;;3.17;;
8423;SDS011;4249;49.072;9.770;2022-09-17T04:57:44;5.87;;;3.13;;
8423;SDS011;4249;49.072;9.770;2022-09-17T05:00:32;4.77;;;3.03;;
8423;SDS011;4249;49.072;9.770;2022-09-17T05:03:20;6.60;;;3.60;;
8423;SDS011;4249;49.072;9.770;2022-09-17T05:06:07;7.70;;;4.20;;
8423;SDS011;4249;49.072;9.770;2022-09-17T05:08:54;5.53;;;3.27;;
8423;SDS011;4249;49.072;9.770;2022-09-17T05:11:42;10.63;;;3.60;;
8423;SDS011;4249;49.072;9.770;2022-09-17T05:14:30;6.23;;;3.10;;
8423;SDS011;4249;49.072;9.770;2022-09-17T05:17:17;5.10;;;3.03;;
8423;SDS011;4249;49.072;9.770;2022-09-17T05:20:04;6.27;;;3.10;;
8423;SDS011;4249;49.072;9.770;2022-09-17T05:22:52;5.30;;;2.70;;
8423;SDS011;4249;49.072;9.770;2022-09-17T05:25:40;5.13;;;3.20;;
8423;SDS011;4249;49.072;9.770;2022-09-17T05:28:28;5.87;;;3.13;;
8423;SDS011;4249;49.072;9.770;2022-09-17T05:31:15;5.17;;;2.80;;
8423;SDS011;4249;49.072;9.770;2022-09-17T05:34:03;6.13;;;3.33;;
8423;SDS011;4249;49.072;9.770;2022-09-17T05:36:50;5.63;;;3.03;;
8423;SDS011;4249;49.072;9.770;2022-09-17T05:39:37;7.50;;;3.00;;
8423;SDS011;4249;49.072;9.770;2022-09-17T05:42:24;4.10;;;3.07;;
8423;SDS011;4249;49.072;9.770;2022-09-17T05:45:13;7.77;;;2.87;;
8423;SDS011;4249;49.072;9.770;2022-09-17T05:48:00;5.60;;;3.20;;
8423;SDS011;4249;49.072;9.770;2022-09-17T05:50:48;5.20;;;3.13;;
8423;SDS011;4249;49.072;9.770;2022-09-17T05:53:35;6.13;;;2.90;;
8423;SDS011;4249;49.072;9.770;2022-09-17T05:56:23;6.87;;;2.87;;
8423;SDS011;4249;49.072;9.770;2022-09-17T05:59:10;6.23;;;2.70;;
8423;SDS011;4249;49.072;9.770;2022-09-17T06:02:00;7.70;;;2.93;;
8423;SDS011;4249;49.072;9.770;2022-09-17T06:04:47;5.10;;;2.90;;
8423;SDS011;4249;49.072;9.770;2022-09-17T06:07:35;5.73;;;3.00;;
8423;SDS011;4249;49.072;9.770;2022-09-17T06:10:22;3.13;;;2.83;;
8423;SDS011;4249;49.072;9.770;2022-09-17T06:13:09;5.73;;;2.67;;
8423;SDS011;4249;49.072;9.770;2022-09-17T06:15:56;7.37;;;2.93;;
8423;SDS011;4249;49.072;9.770;2022-09-17T06:18:45;3.33;;;2.70;;
8423;SDS011;4249;49.072;9.770;2022-09-17T06:21:34;6.13;;;2.77;;
8423;SDS011;4249;49.072;9.770;2022-09-17T06:24:21;3.73;;;2.40;;
8423;SDS011;4249;49.072;9.770;2022-09-17T06:27:08;6.20;;;2.80;;
8423;SDS011;4249;49.072;9.770;2022-09-17T06:29:55;4.80;;;2.70;;
8423;SDS011;4249;49.072;9.770;2022-09-17T06:32:43;4.37;;;3.10;;
8423;SDS011;4249;49.072;9.770;2022-09-17T06:35:31;3.00;;;2.60;;
8423;SDS011;4249;49.072;9.770;2022-09-17T06:38:19;4.83;;;2.97;;
8423;SDS011;4249;49.072;9.770;2022-09-17T06:41:06;6.77;;;3.07;;
8423;SDS011;4249;49.072;9.770;2022-09-17T06:43:53;2.33;;;2.10;;
8423;SDS011;4249;49.072;9.770;2022-09-17T06:46:40;3.10;;;2.90;;
8423;SDS011;4249;49.072;9.770;2022-09-17T06:49:28;3.37;;;2.50;;
8423;SDS011;4249;49.072;9.770;2022-09-17T06:52:18;4.37;;;3.23;;
8423;SDS011;4249;49.072;9.770;2022-09-17T06:55:05;6.40;;;4.40;;
8423;SDS011;4249;49.072;9.770;2022-09-17T06:57:53;3.43;;;3.13;;
8423;SDS011;4249;49.072;9.770;2022-09-17T07:00:43;3.00;;;2.70;;
8423;SDS011;4249;49.072;9.770;2022-09-17T07:03:31;3.63;;;3.23;;
8423;SDS011;4249;49.072;9.770;2022-09-17T07:06:18;3.97;;;3.13;;
8423;SDS011;4249;49.072;9.770;2022-09-17T07:09:07;3.43;;;2.97;;
8423;SDS011;4249;49.072;9.770;2022-09-17T07:11:55;5.73;;;3.30;;
8423;SDS011;4249;49.072;9.770;2022-09-17T07:14:42;3.67;;;3.30;;
8423;SDS011;4249;49.072;9.770;2022-09-17T07:17:30;4.23;;;2.93;;
8423;SDS011;4249;49.072;9.770;2022-09-17T07:20:17;4.73;;;3.40;;
8423;SDS011;4249;49.072;9.770;2022-09-17T07:23:04;6.07;;;2.40;;
8423;SDS011;4249;49.072;9.770;2022-09-17T07:25:53;2.97;;;2.60;;
8423;SDS011;4249;49.072;9.770;2022-09-17T07:28:41;4.80;;;3.10;;
8423;SDS011;4249;49.072;9.770;2022-09-17T07:31:29;5.27;;;3.20;;
8423;SDS011;4249;49.072;9.770;2022-09-17T07:34:16;7.47;;;3.17;;
8423;SDS011;4249;49.072;9.770;2022-09-17T07:37:03;3.70;;;3.13;;
8423;SDS011;4249;49.072;9.770;2022-09-17T07:39:50;3.23;;;2.80;;
8423;SDS011;4249;49.072;9.770;2022-09-17T07:42:40;3.70;;;2.40;;
8423;SDS011;4249;49.072;9.770;2022-09-17T07:45:27;4.00;;;2.20;;
8423;SDS011;4249;49.072;9.770;2022-09-17T07:48:14;3.57;;;2.27;;
8423;SDS011;4249;49.072;9.770;2022-09-17T07:51:01;2.13;;;1.97;;
8423;SDS011;4249;49.072;9.770;2022-09-17T07:53:49;2.83;;;1.97;;
8423;SDS011;4249;49.072;9.770;2022-09-17T07:56:37;3.03;;;2.33;;
8423;SDS011;4249;49.072;9.770;2022-09-17T07:59:26;3.63;;;2.73;;
8423;SDS011;4249;49.072;9.770;2022-09-17T08:02:13;2.87;;;2.10;;
8423;SDS011;4249;49.072;9.770;2022-09-17T08:05:00;2.97;;;2.27;;
8423;SDS011;4249;49.072;9.770;2022-09-17T08:07:48;2.63;;;2.43;;
8423;SDS011;4249;49.072;9.770;2022-09-17T08:10:36;3.43;;;2.30;;
8423;SDS011;4249;49.072;9.770;2022-09-17T08:13:23;2.33;;;2.10;;
8423;SDS011;4249;49.072;9.770;2022-09-17T08:16:12;3.53;;;2.13;;
8423;SDS011;4249;49.072;9.770;2022-09-17T08:18:59;4.40;;;2.23;;
8423;SDS011;4249;49.072;9.770;2022-09-17T08:21:47;8.20;;;2.93;;
8423;SDS011;4249;49.072;9.770;2022-09-17T08:24:34;4.77;;;2.10;;
8423;SDS011;4249;49.072;9.770;2022-09-17T08:27:22;7.27;;;2.90;;
8423;SDS011;4249;49.072;9.770;2022-09-17T08:30:09;5.80;;;3.27;;
8423;SDS011;4249;49.072;9.770;2022-09-17T08:32:58;4.20;;;3.20;;
8423;SDS011;4249;49.072;9.770;2022-09-17T08:35:50;4.10;;;2.63;;
8423;SDS011;4249;49.072;9.770;2022-09-17T08:38:38;6.23;;;3.60;;
8423;SDS011;4249;49.072;9.770;2022-09-17T08:41:27;7.13;;;3.53;;
8423;SDS011;4249;49.072;9.770;2022-09-17T08:44:24;5.43;;;3.50;;
8423;SDS011;4249;49.072;9.770;2022-09-17T08:47:16;4.20;;;3.80;;
8423;SDS011;4249;49.072;9.770;2022-09-17T08:50:12;4.63;;;3.47;;
8423;SDS011;4249;49.072;9.770;2022-09-17T08:53:08;7.57;;;4.13;;
8423;SDS011;4249;49.072;9.770;2022-09-17T08:56:09;9.03;;;4.20;;
8423;SDS011;4249;49.072;9.770;2022-09-17T08:59:03;10.70;;;4.30;;
8423;SDS011;4249;49.072;9.770;2022-09-17T09:02:01;4.93;;;4.07;;
8423;SDS011;4249;49.072;9.770;2022-09-17T09:05:03;8.80;;;5.17;;
8423;SDS011;4249;49.072;9.770;2022-09-17T09:08:01;7.40;;;4.20;;
8423;SDS011;4249;49.072;9.770;2022-09-17T09:10:51;7.17;;;4.47;;
8423;SDS011;4249;49.072;9.770;2022-09-17T09:13:41;6.93;;;3.93;;
8423;SDS011;4249;49.072;9.770;2022-09-17T09:16:33;5.93;;;3.40;;
8423;SDS011;4249;49.072;9.770;2022-09-17T09:19:25;7.60;;;3.43;;
8423;SDS011;4249;49.072;9.770;2022-09-17T09:22:19;8.13;;;3.83;;
8423;SDS011;4249;49.072;9.770;2022-09-17T09:25:21;10.60;;;4.07;;
8423;SDS011;4249;49.072;9.770;2022-09-17T09:28:14;6.80;;;3.27;;
8423;SDS011;4249;49.072;9.770;2022-09-17T09:31:15;12.37;;;3.60;;
8423;SDS011;4249;49.072;9.770;2022-09-17T09:34:13;5.30;;;2.83;;
8423;SDS011;4249;49.072;9.770;2022-09-17T09:37:04;5.57;;;3.23;;
8423;SDS011;4249;49.072;9.770;2022-09-17T09:40:01;8.77;;;2.83;;
8423;SDS011;4249;49.072;9.770;2022-09-17T09:42:54;7.77;;;3.40;;
8423;SDS011;4249;49.072;9.770;2022-09-17T09:45:50;5.23;;;3.13;;
8423;SDS011;4249;49.072;9.770;2022-09-17T09:48:51;7.20;;;3.07;;
8423;SDS011;4249;49.072;9.770;2022-09-17T09:51:49;5.27;;;2.77;;
8423;SDS011;4249;49.072;9.770;2022-09-17T09:54:51;6.33;;;2.80;;
8423;SDS011;4249;49.072;9.770;2022-09-17T09:57:46;5.50;;;2.70;;
8423;SDS011;4249;49.072;9.770;2022-09-17T10:00:36;8.77;;;2.80;;
8423;SDS011;4249;49.072;9.770;2022-09-17T10:03:25;6.60;;;2.80;;
8423;SDS011;4249;49.072;9.770;2022-09-17T10:06:16;6.67;;;2.73;;
8423;SDS011;4249;49.072;9.770;2022-09-17T10:09:08;5.50;;;2.67;;
8423;SDS011;4249;49.072;9.770;2022-09-17T10:12:04;7.60;;;2.70;;
8423;SDS011;4249;49.072;9.770;2022-09-17T10:15:06;3.83;;;2.60;;
8423;SDS011;4249;49.072;9.770;2022-09-17T10:18:13;4.90;;;2.40;;
8423;SDS011;4249;49.072;9.770;2022-09-17T10:21:03;5.87;;;2.50;;
8423;SDS011;4249;49.072;9.770;2022-09-17T10:23:50;5.30;;;2.63;;
8423;SDS011;4249;49.072;9.770;2022-09-17T10:26:37;5.20;;;2.20;;
8423;SDS011;4249;49.072;9.770;2022-09-17T10:29:24;4.50;;;2.40;;
8423;SDS011;4249;49.072;9.770;2022-09-17T10:32:13;7.47;;;2.37;;
8423;SDS011;4249;49.072;9.770;2022-09-17T10:35:04;5.00;;;2.20;;
8423;SDS011;4249;49.072;9.770;2022-09-17T10:38:25;5.50;;;2.50;;
8423;SDS011;4249;49.072;9.770;2022-09-17T10:41:17;7.93;;;3.60;;
8423;SDS011;4249;49.072;9.770;2022-09-17T10:44:15;5.23;;;2.53;;
8423;SDS011;4249;49.072;9.770;2022-09-17T10:47:04;5.57;;;2.40;;
8423;SDS011;4249;49.072;9.770;2022-09-17T10:49:57;5.83;;;2.80;;
8423;SDS011;4249;49.072;9.770;2022-09-17T10:52:48;6.23;;;2.90;;
8423;SDS011;4249;49.072;9.770;2022-09-17T10:55:38;8.43;;;3.57;;
8423;SDS011;4249;49.072;9.770;2022-09-17T10:58:34;7.13;;;2.50;;
8423;SDS011;4249;49.072;9.770;2022-09-17T11:01:34;5.03;;;2.30;;
8423;SDS011;4249;49.072;9.770;2022-09-17T11:04:32;6.20;;;3.10;;
8423;SDS011;4249;49.072;9.770;2022-09-17T11:07:31;6.73;;;2.40;;
8423;SDS011;4249;49.072;9.770;2022-09-17T11:10:28;7.67;;;2.50;;
8423;SDS011;4249;49.072;9.770;2022-09-17T11:13:22;6.57;;;3.03;;
8423;SDS011;4249;49.072;9.770;2022-09-17T11:16:25;7.80;;;3.00;;
8423;SDS011;4249;49.072;9.770;2022-09-17T11:19:22;4.33;;;2.10;;
8423;SDS011;4249;49.072;9.770;2022-09-17T11:22:18;8.80;;;5.03;;
8423;SDS011;4249;49.072;9.770;2022-09-17T11:28:29;6.60;;;2.93;;
8423;SDS011;4249;49.072;9.770;2022-09-17T11:31:36;4.40;;;2.13;;
8423;SDS011;4249;49.072;9.770;2022-09-17T11:34:31;5.33;;;2.90;;
8423;SDS011;4249;49.072;9.770;2022-09-17T11:37:22;6.43;;;2.20;;
8423;SDS011;4249;49.072;9.770;2022-09-17T11:40:14;3.17;;;1.60;;
8423;SDS011;4249;49.072;9.770;2022-09-17T11:43:10;2.57;;;1.60;;
8423;SDS011;4249;49.072;9.770;2022-09-17T11:46:06;5.13;;;1.90;;
8423;SDS011;4249;49.072;9.770;2022-09-17T11:48:57;6.50;;;1.70;;
8423;SDS011;4249;49.072;9.770;2022-09-17T11:51:50;3.93;;;2.03;;
8423;SDS011;4249;49.072;9.770;2022-09-17T11:54:42;2.87;;;1.33;;
8423;SDS011;4249;49.072;9.770;2022-09-17T11:57:36;5.43;;;1.73;;
8423;SDS011;4249;49.072;9.770;2022-09-17T12:00:28;3.67;;;1.33;;
8423;SDS011;4249;49.072;9.770;2022-09-17T12:03:22;4.63;;;1.70;;
8423;SDS011;4249;49.072;9.770;2022-09-17T12:06:16;2.90;;;1.50;;
8423;SDS011;4249;49.072;9.770;2022-09-17T12:09:09;2.83;;;1.73;;
8423;SDS011;4249;49.072;9.770;2022-09-17T12:12:02;4.60;;;2.07;;
8423;SDS011;4249;49.072;9.770;2022-09-17T12:14:56;5.37;;;1.80;;
8423;SDS011;4249;49.072;9.770;2022-09-17T12:17:51;4.20;;;1.73;;
8423;SDS011;4249;49.072;9.770;2022-09-17T12:20:44;3.90;;;1.37;;
8423;SDS011;4249;49.072;9.770;2022-09-17T12:23:36;3.67;;;1.87;;
8423;SDS011;4249;49.072;9.770;2022-09-17T12:26:43;3.50;;;1.43;;
8423;SDS011;4249;49.072;9.770;2022-09-17T12:29:49;2.80;;;1.50;;
8423;SDS011;4249;49.072;9.770;2022-09-17T12:32:58;3.53;;;1.80;;
8423;SDS011;4249;49.072;9.770;2022-09-17T12:36:02;2.47;;;1.60;;
8423;SDS011;4249;49.072;9.770;2022-09-17T12:39:16;2.50;;;1.70;;
8423;SDS011;4249;49.072;9.770;2022-09-17T12:42:19;4.43;;;1.60;;
8423;SDS011;4249;49.072;9.770;2022-09-17T12:45:20;4.17;;;1.60;;
8423;SDS011;4249;49.072;9.770;2022-09-17T12:48:23;4.63;;;1.40;;
8423;SDS011;4249;49.072;9.770;2022-09-17T12:51:34;3.30;;;1.47;;
8423;SDS011;4249;49.072;9.770;2022-09-17T12:54:41;2.97;;;1.17;;
8423;SDS011;4249;49.072;9.770;2022-09-17T12:57:44;3.10;;;0.90;;
8423;SDS011;4249;49.072;9.770;2022-09-17T13:00:41;3.10;;;1.00;;
8423;SDS011;4249;49.072;9.770;2022-09-17T13:03:35;2.13;;;1.23;;
8423;SDS011;4249;49.072;9.770;2022-09-17T13:06:35;2.30;;;1.10;;
8423;SDS011;4249;49.072;9.770;2022-09-17T13:09:55;2.37;;;1.17;;
8423;SDS011;4249;49.072;9.770;2022-09-17T13:12:51;1.93;;;1.07;;
8423;SDS011;4249;49.072;9.770;2022-09-17T13:15:49;2.00;;;1.20;;
8423;SDS011;4249;49.072;9.770;2022-09-17T13:18:45;3.93;;;1.37;;
8423;SDS011;4249;49.072;9.770;2022-09-17T13:21:39;3.33;;;1.50;;
8423;SDS011;4249;49.072;9.770;2022-09-17T13:24:31;1.33;;;1.10;;
8423;SDS011;4249;49.072;9.770;2022-09-17T13:27:20;2.03;;;1.00;;
8423;SDS011;4249;49.072;9.770;2022-09-17T13:30:10;2.23;;;1.10;;
8423;SDS011;4249;49.072;9.770;2022-09-17T13:32:59;2.10;;;1.10;;
8423;SDS011;4249;49.072;9.770;2022-09-17T13:35:49;3.87;;;1.00;;
8423;SDS011;4249;49.072;9.770;2022-09-17T13:38:39;1.33;;;1.00;;
8423;SDS011;4249;49.072;9.770;2022-09-17T13:41:28;1.27;;;1.00;;
8423;SDS011;4249;49.072;9.770;2022-09-17T13:44:17;2.83;;;1.10;;
8423;SDS011;4249;49.072;9.770;2022-09-17T13:47:18;2.37;;;1.30;;
8423;SDS011;4249;49.072;9.770;2022-09-17T13:50:09;1.53;;;0.90;;
8423;SDS011;4249;49.072;9.770;2022-09-17T13:53:17;2.30;;;1.27;;
8423;SDS011;4249;49.072;9.770;2022-09-17T13:59:18;2.70;;;1.50;;
8423;SDS011;4249;49.072;9.770;2022-09-17T14:08:29;2.00;;;1.10;;
8423;SDS011;4249;49.072;9.770;2022-09-17T14:11:36;4.37;;;1.20;;
8423;SDS011;4249;49.072;9.770;2022-09-17T14:14:40;3.97;;;1.60;;
8423;SDS011;4249;49.072;9.770;2022-09-17T14:17:49;1.73;;;1.07;;
8423;SDS011;4249;49.072;9.770;2022-09-17T14:20:37;2.50;;;1.33;;
8423;SDS011;4249;49.072;9.770;2022-09-17T14:23:25;2.97;;;1.60;;
8423;SDS011;4249;49.072;9.770;2022-09-17T14:26:15;2.13;;;1.10;;
8423;SDS011;4249;49.072;9.770;2022-09-17T14:29:13;3.40;;;1.37;;
8423;SDS011;4249;49.072;9.770;2022-09-17T14:32:23;4.30;;;1.73;;
8423;SDS011;4249;49.072;9.770;2022-09-17T14:35:19;5.53;;;1.50;;
8423;SDS011;4249;49.072;9.770;2022-09-17T14:38:22;1.40;;;1.10;;
8423;SDS011;4249;49.072;9.770;2022-09-17T14:41:19;4.80;;;1.60;;
8423;SDS011;4249;49.072;9.770;2022-09-17T14:44:11;2.57;;;1.20;;
8423;SDS011;4249;49.072;9.770;2022-09-17T14:47:01;1.70;;;1.20;;
8423;SDS011;4249;49.072;9.770;2022-09-17T14:49:52;2.23;;;1.30;;
8423;SDS011;4249;49.072;9.770;2022-09-17T14:52:40;1.67;;;1.30;;
8423;SDS011;4249;49.072;9.770;2022-09-17T14:55:34;2.17;;;1.30;;
8423;SDS011;4249;49.072;9.770;2022-09-17T14:58:30;2.33;;;1.47;;
8423;SDS011;4249;49.072;9.770;2022-09-17T15:01:20;3.70;;;1.47;;
8423;SDS011;4249;49.072;9.770;2022-09-17T15:04:09;4.50;;;1.43;;
8423;SDS011;4249;49.072;9.770;2022-09-17T15:07:05;3.10;;;1.40;;
8423;SDS011;4249;49.072;9.770;2022-09-17T15:10:04;2.17;;;1.17;;
8423;SDS011;4249;49.072;9.770;2022-09-17T15:12:52;2.33;;;1.40;;
8423;SDS011;4249;49.072;9.770;2022-09-17T15:15:44;1.80;;;1.13;;
8423;SDS011;4249;49.072;9.770;2022-09-17T15:18:39;2.30;;;1.30;;
8423;SDS011;4249;49.072;9.770;2022-09-17T15:21:29;3.83;;;1.60;;
8423;SDS011;4249;49.072;9.770;2022-09-17T15:24:20;2.87;;;1.50;;
8423;SDS011;4249;49.072;9.770;2022-09-17T15:27:13;2.37;;;1.30;;
8423;SDS011;4249;49.072;9.770;2022-09-17T15:30:08;2.40;;;1.60;;
8423;SDS011;4249;49.072;9.770;2022-09-17T15:33:01;2.07;;;1.40;;
8423;SDS011;4249;49.072;9.770;2022-09-17T15:35:57;2.33;;;1.30;;
8423;SDS011;4249;49.072;9.770;2022-09-17T15:38:45;3.00;;;1.30;;
8423;SDS011;4249;49.072;9.770;2022-09-17T15:41:33;1.70;;;1.20;;
8423;SDS011;4249;49.072;9.770;2022-09-17T15:44:22;2.90;;;1.30;;
8423;SDS011;4249;49.072;9.770;2022-09-17T15:50:23;2.50;;;1.50;;
8423;SDS011;4249;49.072;9.770;2022-09-17T15:53:12;2.67;;;1.30;;
8423;SDS011;4249;49.072;9.770;2022-09-17T15:56:01;2.83;;;1.57;;
8423;SDS011;4249;49.072;9.770;2022-09-17T15:58:56;3.53;;;1.80;;
8423;SDS011;4249;49.072;9.770;2022-09-17T16:01:49;6.70;;;2.17;;
8423;SDS011;4249;49.072;9.770;2022-09-17T16:04:38;3.37;;;1.60;;
8423;SDS011;4249;49.072;9.770;2022-09-17T16:07:29;2.07;;;1.37;;
8423;SDS011;4249;49.072;9.770;2022-09-17T16:10:16;4.33;;;1.33;;
8423;SDS011;4249;49.072;9.770;2022-09-17T16:13:04;2.27;;;1.67;;
8423;SDS011;4249;49.072;9.770;2022-09-17T16:15:51;4.20;;;1.77;;
8423;SDS011;4249;49.072;9.770;2022-09-17T16:18:38;3.87;;;1.73;;
8423;SDS011;4249;49.072;9.770;2022-09-17T16:21:25;5.67;;;1.70;;
8423;SDS011;4249;49.072;9.770;2022-09-17T16:24:14;3.37;;;1.93;;
8423;SDS011;4249;49.072;9.770;2022-09-17T16:27:02;4.07;;;2.37;;
8423;SDS011;4249;49.072;9.770;2022-09-17T16:29:50;11.10;;;2.10;;
8423;SDS011;4249;49.072;9.770;2022-09-17T16:32:46;2.67;;;1.60;;
8423;SDS011;4249;49.072;9.770;2022-09-17T16:35:33;3.50;;;2.10;;
8423;SDS011;4249;49.072;9.770;2022-09-17T16:38:22;1.87;;;1.40;;
8423;SDS011;4249;49.072;9.770;2022-09-17T16:41:12;2.23;;;1.17;;
8423;SDS011;4249;49.072;9.770;2022-09-17T16:43:59;3.87;;;1.60;;
8423;SDS011;4249;49.072;9.770;2022-09-17T16:46:46;3.40;;;1.70;;
8423;SDS011;4249;49.072;9.770;2022-09-17T16:49:33;2.63;;;1.90;;
8423;SDS011;4249;49.072;9.770;2022-09-17T16:52:20;2.90;;;1.90;;
8423;SDS011;4249;49.072;9.770;2022-09-17T16:55:08;2.90;;;1.90;;
8423;SDS011;4249;49.072;9.770;2022-09-17T16:57:57;3.17;;;2.20;;
8423;SDS011;4249;49.072;9.770;2022-09-17T17:00:44;2.90;;;1.83;;
8423;SDS011;4249;49.072;9.770;2022-09-17T17:03:31;3.87;;;2.23;;
8423;SDS011;4249;49.072;9.770;2022-09-17T17:06:19;6.07;;;2.07;;
8423;SDS011;4249;49.072;9.770;2022-09-17T17:09:07;4.80;;;2.03;;
8423;SDS011;4249;49.072;9.770;2022-09-17T17:11:56;3.27;;;2.17;;
8423;SDS011;4249;49.072;9.770;2022-09-17T17:14:45;3.20;;;2.27;;
8423;SDS011;4249;49.072;9.770;2022-09-17T17:17:34;4.90;;;2.30;;
8423;SDS011;4249;49.072;9.770;2022-09-17T17:20:22;4.10;;;2.20;;
8423;SDS011;4249;49.072;9.770;2022-09-17T17:23:09;3.30;;;1.67;;
8423;SDS011;4249;49.072;9.770;2022-09-17T17:25:56;2.47;;;1.87;;
8423;SDS011;4249;49.072;9.770;2022-09-17T17:28:44;2.33;;;2.13;;
8423;SDS011;4249;49.072;9.770;2022-09-17T17:31:34;3.03;;;1.90;;
8423;SDS011;4249;49.072;9.770;2022-09-17T17:34:22;2.83;;;2.00;;
8423;SDS011;4249;49.072;9.770;2022-09-17T17:37:09;2.03;;;1.50;;
8423;SDS011;4249;49.072;9.770;2022-09-17T17:39:58;2.37;;;1.93;;
8423;SDS011;4249;49.072;9.770;2022-09-17T17:42:50;3.73;;;2.43;;
8423;SDS011;4249;49.072;9.770;2022-09-17T17:45:37;4.87;;;2.17;;
8423;SDS011;4249;49.072;9.770;2022-09-17T17:48:27;4.60;;;2.87;;
8423;SDS011;4249;49.072;9.770;2022-09-17T17:51:15;3.40;;;2.43;;
8423;SDS011;4249;49.072;9.770;2022-09-17T17:54:03;4.50;;;2.47;;
8423;SDS011;4249;49.072;9.770;2022-09-17T17:56:51;2.70;;;2.23;;
8423;SDS011;4249;49.072;9.770;2022-09-17T17:59:38;3.80;;;2.53;;
8423;SDS011;4249;49.072;9.770;2022-09-17T18:02:26;5.70;;;2.40;;
8423;SDS011;4249;49.072;9.770;2022-09-17T18:05:14;3.33;;;2.27;;